sensor_id;sensor_type;location;lat;lon;timestamp;temperature;humidity
30467;DHT22;17258;52.560;13.046;2023-03-05T00:02:40;8.30;58.50
30467;DHT22;17258;52.560;13.046;2023-03-05T00:12:41;8.20;58.60
30467;DHT22;17258;52.560;13.046;2023-03-05T00:22:42;8.20;58.80
30467;DHT22;17258;52.560;13.046;2023-03-05T00:32:43;8.10;58.80
30467;DHT22;17258;52.560;13.046;2023-03-05T00:42:44;8.10;58.80
30467;DHT22;17258;52.560;13.046;2023-03-05T00:52:44;8.00;58.70
30467;DHT22;17258;52.560;13.046;2023-03-05T01:02:45;7.90;58.60
30467;DHT22;17258;52.560;13.046;2023-03-05T01:12:45;7.80;58.40
30467;DHT22;17258;52.560;13.046;2023-03-05T01:22:46;7.70;58.30
30467;DHT22;17258;52.560;13.046;2023-03-05T01:32:47;7.60;57.90
30467;DHT22;17258;52.560;13.046;2023-03-05T01:42:54;7.50;57.60
30467;DHT22;17258;52.560;13.046;2023-03-05T01:53:00;7.40;57.30
30467;DHT22;17258;52.560;13.046;2023-03-05T02:03:04;7.30;57.00
30467;DHT22;17258;52.560;13.046;2023-03-05T02:13:17;7.10;57.00
30467;DHT22;17258;52.560;13.046;2023-03-05T02:23:24;7.00;57.00
30467;DHT22;17258;52.560;13.046;2023-03-05T02:33:29;7.00;57.20
30467;DHT22;17258;52.560;13.046;2023-03-05T02:43:30;6.90;57.40
30467;DHT22;17258;52.560;13.046;2023-03-05T02:53:30;6.90;57.50
30467;DHT22;17258;52.560;13.046;2023-03-05T03:03:31;7.00;57.50
30467;DHT22;17258;52.560;13.046;2023-03-05T03:13:32;7.00;57.60
30467;DHT22;17258;52.560;13.046;2023-03-05T03:23:33;7.00;58.20
30467;DHT22;17258;52.560;13.046;2023-03-05T03:33:34;7.00;57.40
30467;DHT22;17258;52.560;13.046;2023-03-05T03:43:35;7.00;57.20
30467;DHT22;17258;52.560;13.046;2023-03-05T03:53:36;6.90;57.30
30467;DHT22;17258;52.560;13.046;2023-03-05T04:03:36;6.90;57.40
30467;DHT22;17258;52.560;13.046;2023-03-05T04:13:37;6.80;57.40
30467;DHT22;17258;52.560;13.046;2023-03-05T04:23:38;6.70;57.50
30467;DHT22;17258;52.560;13.046;2023-03-05T04:33:39;6.60;57.50
30467;DHT22;17258;52.560;13.046;2023-03-05T04:43:40;6.50;57.70
30467;DHT22;17258;52.560;13.046;2023-03-05T04:53:40;6.40;57.80
30467;DHT22;17258;52.560;13.046;2023-03-05T05:03:41;6.40;57.90
30467;DHT22;17258;52.560;13.046;2023-03-05T05:13:42;6.30;58.00
30467;DHT22;17258;52.560;13.046;2023-03-05T05:23:43;6.30;58.10
30467;DHT22;17258;52.560;13.046;2023-03-05T05:33:44;6.30;58.20
30467;DHT22;17258;52.560;13.046;2023-03-05T05:43:45;6.30;58.30
30467;DHT22;17258;52.560;13.046;2023-03-05T05:53:45;6.30;58.50
30467;DHT22;17258;52.560;13.046;2023-03-05T06:03:47;6.30;58.70
30467;DHT22;17258;52.560;13.046;2023-03-05T06:13:48;6.30;59.00
30467;DHT22;17258;52.560;13.046;2023-03-05T06:23:49;6.40;59.10
30467;DHT22;17258;52.560;13.046;2023-03-05T06:33:51;6.50;59.10
30467;DHT22;17258;52.560;13.046;2023-03-05T06:43:54;6.50;59.30
30467;DHT22;17258;52.560;13.046;2023-03-05T06:53:59;6.60;59.30
30467;DHT22;17258;52.560;13.046;2023-03-05T07:04:01;6.70;59.30
30467;DHT22;17258;52.560;13.046;2023-03-05T07:14:02;6.80;59.30
30467;DHT22;17258;52.560;13.046;2023-03-05T07:24:04;6.90;59.20
30467;DHT22;17258;52.560;13.046;2023-03-05T07:34:05;7.00;59.10
30467;DHT22;17258;52.560;13.046;2023-03-05T07:44:06;7.10;59.00
30467;DHT22;17258;52.560;13.046;2023-03-05T07:54:08;7.20;59.10
30467;DHT22;17258;52.560;13.046;2023-03-05T08:04:09;7.30;58.90
30467;DHT22;17258;52.560;13.046;2023-03-05T08:14:11;7.40;58.90
30467;DHT22;17258;52.560;13.046;2023-03-05T08:24:12;7.50;58.90
30467;DHT22;17258;52.560;13.046;2023-03-05T08:34:13;7.60;58.50
30467;DHT22;17258;52.560;13.046;2023-03-05T08:44:14;7.70;58.40
30467;DHT22;17258;52.560;13.046;2023-03-05T08:54:15;7.90;58.70
30467;DHT22;17258;52.560;13.046;2023-03-05T09:04:15;8.10;58.50
30467;DHT22;17258;52.560;13.046;2023-03-05T09:14:16;8.30;58.00
30467;DHT22;17258;52.560;13.046;2023-03-05T09:24:17;8.40;58.00
30467;DHT22;17258;52.560;13.046;2023-03-05T09:34:18;8.50;57.40
30467;DHT22;17258;52.560;13.046;2023-03-05T09:54:46;8.80;57.00
30467;DHT22;17258;52.560;13.046;2023-03-05T10:04:59;8.90;55.60
30467;DHT22;17258;52.560;13.046;2023-03-05T10:15:13;8.90;55.50
30467;DHT22;17258;52.560;13.046;2023-03-05T10:25:49;8.90;55.50
30467;DHT22;17258;52.560;13.046;2023-03-05T10:46:36;9.00;55.80
30467;DHT22;17258;52.560;13.046;2023-03-05T10:56:37;9.00;55.90
30467;DHT22;17258;52.560;13.046;2023-03-05T11:06:42;9.00;56.30
30467;DHT22;17258;52.560;13.046;2023-03-05T11:16:48;9.10;56.30
30467;DHT22;17258;52.560;13.046;2023-03-05T11:26:54;9.10;56.20
30467;DHT22;17258;52.560;13.046;2023-03-05T11:47:12;9.10;56.30
30467;DHT22;17258;52.560;13.046;2023-03-05T11:57:18;8.90;56.20
30467;DHT22;17258;52.560;13.046;2023-03-05T12:07:36;8.90;56.80
30467;DHT22;17258;52.560;13.046;2023-03-05T12:18:12;8.90;57.00
30467;DHT22;17258;52.560;13.046;2023-03-05T12:38:33;9.10;56.90
30467;DHT22;17258;52.560;13.046;2023-03-05T12:48:41;9.10;56.90
30467;DHT22;17258;52.560;13.046;2023-03-05T12:58:51;9.10;57.00
30467;DHT22;17258;52.560;13.046;2023-03-05T13:09:02;9.10;57.00
30467;DHT22;17258;52.560;13.046;2023-03-05T13:19:17;9.00;56.80
30467;DHT22;17258;52.560;13.046;2023-03-05T13:39:25;8.80;57.20
30467;DHT22;17258;52.560;13.046;2023-03-05T13:49:27;8.90;57.10
30467;DHT22;17258;52.560;13.046;2023-03-05T13:59:33;9.00;57.20
30467;DHT22;17258;52.560;13.046;2023-03-05T14:19:38;9.10;57.00
30467;DHT22;17258;52.560;13.046;2023-03-05T14:29:44;9.00;56.90
30467;DHT22;17258;52.560;13.046;2023-03-05T14:39:51;8.90;56.90
30467;DHT22;17258;52.560;13.046;2023-03-05T14:49:53;8.80;57.00
30467;DHT22;17258;52.560;13.046;2023-03-05T14:59:54;8.80;57.10
30467;DHT22;17258;52.560;13.046;2023-03-05T15:09:55;8.70;57.20
30467;DHT22;17258;52.560;13.046;2023-03-05T15:19:55;8.60;57.00
30467;DHT22;17258;52.560;13.046;2023-03-05T15:29:56;8.60;57.00
30467;DHT22;17258;52.560;13.046;2023-03-05T15:39:58;8.50;57.00
30467;DHT22;17258;52.560;13.046;2023-03-05T15:50:00;8.40;56.90
30467;DHT22;17258;52.560;13.046;2023-03-05T16:00:01;8.40;57.10
30467;DHT22;17258;52.560;13.046;2023-03-05T16:10:06;8.30;57.00
30467;DHT22;17258;52.560;13.046;2023-03-05T16:20:11;8.30;57.10
30467;DHT22;17258;52.560;13.046;2023-03-05T16:30:14;8.30;57.10
30467;DHT22;17258;52.560;13.046;2023-03-05T16:40:16;8.20;57.00
30467;DHT22;17258;52.560;13.046;2023-03-05T16:50:17;8.20;57.10
30467;DHT22;17258;52.560;13.046;2023-03-05T17:00:18;8.10;57.10
30467;DHT22;17258;52.560;13.046;2023-03-05T17:10:21;8.10;57.10
30467;DHT22;17258;52.560;13.046;2023-03-05T17:20:21;8.00;57.00
30467;DHT22;17258;52.560;13.046;2023-03-05T17:30:22;7.90;57.00
30467;DHT22;17258;52.560;13.046;2023-03-05T17:40:23;7.80;57.10
30467;DHT22;17258;52.560;13.046;2023-03-05T17:50:24;7.80;57.20
30467;DHT22;17258;52.560;13.046;2023-03-05T18:00:28;7.70;57.30
30467;DHT22;17258;52.560;13.046;2023-03-05T18:10:30;7.70;57.30
30467;DHT22;17258;52.560;13.046;2023-03-05T18:20:34;7.60;57.20
30467;DHT22;17258;52.560;13.046;2023-03-05T18:30:36;7.50;57.20
30467;DHT22;17258;52.560;13.046;2023-03-05T18:40:38;7.50;57.30
30467;DHT22;17258;52.560;13.046;2023-03-05T18:50:39;7.40;57.30
30467;DHT22;17258;52.560;13.046;2023-03-05T19:00:40;7.30;57.50
30467;DHT22;17258;52.560;13.046;2023-03-05T19:10:42;7.30;57.60
30467;DHT22;17258;52.560;13.046;2023-03-05T19:20:43;7.30;57.70
30467;DHT22;17258;52.560;13.046;2023-03-05T19:30:47;7.30;57.70
30467;DHT22;17258;52.560;13.046;2023-03-05T19:40:48;7.30;57.80
30467;DHT22;17258;52.560;13.046;2023-03-05T19:50:49;7.40;57.90
30467;DHT22;17258;52.560;13.046;2023-03-05T20:00:49;7.30;57.90
30467;DHT22;17258;52.560;13.046;2023-03-05T20:10:50;7.30;57.90
30467;DHT22;17258;52.560;13.046;2023-03-05T20:20:52;7.30;57.90
30467;DHT22;17258;52.560;13.046;2023-03-05T20:30:56;7.30;58.00
30467;DHT22;17258;52.560;13.046;2023-03-05T20:41:00;7.30;58.00
30467;DHT22;17258;52.560;13.046;2023-03-05T20:51:17;7.30;58.00
30467;DHT22;17258;52.560;13.046;2023-03-05T21:01:21;7.20;58.20
30467;DHT22;17258;52.560;13.046;2023-03-05T21:11:22;7.20;58.80
30467;DHT22;17258;52.560;13.046;2023-03-05T21:21:23;7.20;58.30
30467;DHT22;17258;52.560;13.046;2023-03-05T21:31:24;7.10;58.30
30467;DHT22;17258;52.560;13.046;2023-03-05T21:41:25;7.20;58.50
30467;DHT22;17258;52.560;13.046;2023-03-05T21:51:26;7.20;58.50
30467;DHT22;17258;52.560;13.046;2023-03-05T22:01:37;7.20;58.50
30467;DHT22;17258;52.560;13.046;2023-03-05T22:11:39;7.10;58.50
30467;DHT22;17258;52.560;13.046;2023-03-05T22:21:41;7.20;58.60
30467;DHT22;17258;52.560;13.046;2023-03-05T22:31:43;7.20;58.60
30467;DHT22;17258;52.560;13.046;2023-03-05T22:41:44;7.10;58.60
30467;DHT22;17258;52.560;13.046;2023-03-05T22:51:44;7.20;58.60
30467;DHT22;17258;52.560;13.046;2023-03-05T23:01:45;7.10;58.60
30467;DHT22;17258;52.560;13.046;2023-03-05T23:11:46;7.10;58.70
30467;DHT22;17258;52.560;13.046;2023-03-05T23:21:46;7.10;58.70
30467;DHT22;17258;52.560;13.046;2023-03-05T23:31:47;7.10;58.70
30467;DHT22;17258;52.560;13.046;2023-03-05T23:41:47;7.10;58.70
30467;DHT22;17258;52.560;13.046;2023-03-05T23:51:48;7.10;58.80
